sensor_id;sensor_type;location;lat;lon;timestamp;pressure;altitude;pressure_sealevel;temperature;humidity
41515;BME280;27247;48.020;16.720;2023-05-12T00:00:46;99804.91;;;11.14;100.00
41515;BME280;27247;48.020;16.720;2023-05-12T00:04:57;99804.78;;;11.07;100.00
41515;BME280;27247;48.020;16.720;2023-05-12T00:09:07;99807.59;;;11.14;100.00
41515;BME280;27247;48.020;16.720;2023-05-12T00:13:18;99813.72;;;11.00;100.00
41515;BME280;27247;48.020;16.720;2023-05-12T00:17:32;99811.75;;;10.94;100.00
41515;BME280;27247;48.020;16.720;2023-05-12T00:21:43;99809.63;;;10.89;100.00
41515;BME280;27247;48.020;16.720;2023-05-12T00:25:53;99810.97;;;10.85;100.00
41515;BME280;27247;48.020;16.720;2023-05-12T00:30:04;99814.31;;;10.87;100.00
41515;BME280;27247;48.020;16.720;2023-05-12T00:34:16;99816.03;;;10.80;100.00
41515;BME280;27247;48.020;16.720;2023-05-12T00:38:26;99818.16;;;10.84;100.00
41515;BME280;27247;48.020;16.720;2023-05-12T00:42:37;99819.34;;;10.82;100.00
41515;BME280;27247;48.020;16.720;2023-05-12T00:46:48;99810.75;;;10.72;100.00
41515;BME280;27247;48.020;16.720;2023-05-12T00:50:59;99810.25;;;10.68;100.00
41515;BME280;27247;48.020;16.720;2023-05-12T00:55:09;99821.59;;;10.70;100.00
41515;BME280;27247;48.020;16.720;2023-05-12T00:59:20;99796.41;;;10.65;100.00
41515;BME280;27247;48.020;16.720;2023-05-12T01:03:30;99809.31;;;10.61;100.00
41515;BME280;27247;48.020;16.720;2023-05-12T01:07:41;99809.97;;;10.63;100.00
41515;BME280;27247;48.020;16.720;2023-05-12T01:11:51;99814.34;;;10.56;100.00
41515;BME280;27247;48.020;16.720;2023-05-12T01:16:02;99813.50;;;10.55;100.00
41515;BME280;27247;48.020;16.720;2023-05-12T01:20:15;99813.50;;;10.55;100.00
41515;BME280;27247;48.020;16.720;2023-05-12T01:24:29;99809.34;;;10.53;100.00
41515;BME280;27247;48.020;16.720;2023-05-12T01:28:42;99814.34;;;10.56;100.00
41515;BME280;27247;48.020;16.720;2023-05-12T01:32:54;99815.34;;;10.55;100.00
41515;BME280;27247;48.020;16.720;2023-05-12T01:37:04;99816.06;;;10.49;100.00
41515;BME280;27247;48.020;16.720;2023-05-12T01:41:15;99814.22;;;10.49;100.00
41515;BME280;27247;48.020;16.720;2023-05-12T01:45:25;99821.75;;;10.46;100.00
41515;BME280;27247;48.020;16.720;2023-05-12T01:49:36;99822.59;;;10.38;100.00
41515;BME280;27247;48.020;16.720;2023-05-12T01:53:47;99827.75;;;10.40;100.00
41515;BME280;27247;48.020;16.720;2023-05-12T01:57:57;99824.44;;;10.38;100.00
41515;BME280;27247;48.020;16.720;2023-05-12T02:02:08;99828.28;;;10.35;100.00
41515;BME280;27247;48.020;16.720;2023-05-12T02:06:18;99827.94;;;10.38;100.00
41515;BME280;27247;48.020;16.720;2023-05-12T02:10:28;99823.44;;;10.39;100.00
41515;BME280;27247;48.020;16.720;2023-05-12T02:14:39;99829.78;;;10.38;100.00
41515;BME280;27247;48.020;16.720;2023-05-12T02:18:49;99817.75;;;10.42;100.00
41515;BME280;27247;48.020;16.720;2023-05-12T02:23:00;99825.09;;;10.40;100.00
41515;BME280;27247;48.020;16.720;2023-05-12T02:27:12;99819.97;;;10.30;100.00
41515;BME280;27247;48.020;16.720;2023-05-12T02:31:22;99826.97;;;10.31;100.00
41515;BME280;27247;48.020;16.720;2023-05-12T02:35:33;99839.31;;;10.32;100.00
41515;BME280;27247;48.020;16.720;2023-05-12T02:39:43;99837.97;;;10.36;100.00
41515;BME280;27247;48.020;16.720;2023-05-12T02:43:53;99841.13;;;10.40;100.00
41515;BME280;27247;48.020;16.720;2023-05-12T02:48:04;99830.78;;;10.45;100.00
41515;BME280;27247;48.020;16.720;2023-05-12T02:52:14;99825.44;;;10.37;100.00
41515;BME280;27247;48.020;16.720;2023-05-12T02:56:25;99815.28;;;10.32;100.00
41515;BME280;27247;48.020;16.720;2023-05-12T03:00:35;99832.00;;;10.18;100.00
41515;BME280;27247;48.020;16.720;2023-05-12T03:04:45;99823.81;;;10.19;100.00
41515;BME280;27247;48.020;16.720;2023-05-12T03:08:56;99823.16;;;10.17;100.00
41515;BME280;27247;48.020;16.720;2023-05-12T03:13:06;99830.69;;;10.22;100.00
41515;BME280;27247;48.020;16.720;2023-05-12T03:17:17;99831.16;;;10.17;100.00
41515;BME280;27247;48.020;16.720;2023-05-12T03:21:27;99826.19;;;10.14;100.00
41515;BME280;27247;48.020;16.720;2023-05-12T03:25:38;99823.84;;;10.11;100.00
41515;BME280;27247;48.020;16.720;2023-05-12T03:29:48;99833.19;;;10.15;100.00
41515;BME280;27247;48.020;16.720;2023-05-12T03:33:58;99822.97;;;10.19;100.00
41515;BME280;27247;48.020;16.720;2023-05-12T03:38:09;99826.50;;;10.19;100.00
41515;BME280;27247;48.020;16.720;2023-05-12T03:42:19;99825.50;;;10.20;100.00
41515;BME280;27247;48.020;16.720;2023-05-12T03:46:30;99823.81;;;10.19;100.00
41515;BME280;27247;48.020;16.720;2023-05-12T03:50:40;99830.50;;;10.23;100.00
41515;BME280;27247;48.020;16.720;2023-05-12T03:54:50;99831.84;;;10.19;100.00
41515;BME280;27247;48.020;16.720;2023-05-12T03:59:01;99819.34;;;10.20;100.00
41515;BME280;27247;48.020;16.720;2023-05-12T04:03:11;99827.66;;;10.17;100.00
41515;BME280;27247;48.020;16.720;2023-05-12T04:07:21;99834.19;;;10.14;100.00
41515;BME280;27247;48.020;16.720;2023-05-12T04:11:32;99833.34;;;10.14;100.00
41515;BME280;27247;48.020;16.720;2023-05-12T04:15:42;99834.34;;;10.21;100.00
41515;BME280;27247;48.020;16.720;2023-05-12T04:19:52;99839.34;;;10.24;100.00
41515;BME280;27247;48.020;16.720;2023-05-12T04:24:03;99848.72;;;10.20;100.00
41515;BME280;27247;48.020;16.720;2023-05-12T04:28:13;99843.53;;;10.18;100.00
41515;BME280;27247;48.020;16.720;2023-05-12T04:32:24;99855.56;;;10.22;100.00
41515;BME280;27247;48.020;16.720;2023-05-12T04:36:34;99842.84;;;10.24;100.00
41515;BME280;27247;48.020;16.720;2023-05-12T04:40:45;99859.72;;;10.25;100.00
41515;BME280;27247;48.020;16.720;2023-05-12T04:44:55;99850.88;;;10.16;100.00
41515;BME280;27247;48.020;16.720;2023-05-12T04:49:05;99852.03;;;10.14;100.00
41515;BME280;27247;48.020;16.720;2023-05-12T04:53:16;99855.56;;;10.14;100.00
41515;BME280;27247;48.020;16.720;2023-05-12T04:57:26;99852.72;;;10.16;100.00
41515;BME280;27247;48.020;16.720;2023-05-12T05:01:37;99855.19;;;10.17;100.00
41515;BME280;27247;48.020;16.720;2023-05-12T05:05:47;99848.84;;;10.18;100.00
41515;BME280;27247;48.020;16.720;2023-05-12T05:09:58;99846.53;;;10.15;100.00
41515;BME280;27247;48.020;16.720;2023-05-12T05:14:08;99853.53;;;10.24;100.00
41515;BME280;27247;48.020;16.720;2023-05-12T05:18:18;99847.19;;;10.26;100.00
41515;BME280;27247;48.020;16.720;2023-05-12T05:22:29;99843.88;;;10.23;100.00
41515;BME280;27247;48.020;16.720;2023-05-12T05:26:39;99852.34;;;10.27;100.00
41515;BME280;27247;48.020;16.720;2023-05-12T05:30:51;99859.84;;;10.32;100.00
41515;BME280;27247;48.020;16.720;2023-05-12T05:35:02;99859.84;;;10.32;100.00
41515;BME280;27247;48.020;16.720;2023-05-12T05:39:12;99855.03;;;10.27;100.00
41515;BME280;27247;48.020;16.720;2023-05-12T05:43:22;99859.38;;;10.28;100.00
41515;BME280;27247;48.020;16.720;2023-05-12T05:47:33;99863.22;;;10.26;100.00
41515;BME280;27247;48.020;16.720;2023-05-12T05:51:44;99875.56;;;10.27;100.00
41515;BME280;27247;48.020;16.720;2023-05-12T05:55:54;99866.22;;;10.22;100.00
41515;BME280;27247;48.020;16.720;2023-05-12T06:00:05;99873.25;;;10.23;100.00
41515;BME280;27247;48.020;16.720;2023-05-12T06:04:19;99870.56;;;10.23;100.00
41515;BME280;27247;48.020;16.720;2023-05-12T06:08:30;99870.88;;;10.29;100.00
41515;BME280;27247;48.020;16.720;2023-05-12T06:12:40;99873.72;;;10.27;100.00
41515;BME280;27247;48.020;16.720;2023-05-12T06:16:52;99879.03;;;10.35;100.00
41515;BME280;27247;48.020;16.720;2023-05-12T06:21:03;99883.38;;;10.36;100.00
41515;BME280;27247;48.020;16.720;2023-05-12T06:25:14;99876.19;;;10.37;100.00
41515;BME280;27247;48.020;16.720;2023-05-12T06:29:24;99881.88;;;10.42;100.00
41515;BME280;27247;48.020;16.720;2023-05-12T06:33:34;99879.69;;;10.45;100.00
41515;BME280;27247;48.020;16.720;2023-05-12T06:37:45;99890.56;;;10.44;100.00
41515;BME280;27247;48.020;16.720;2023-05-12T06:41:58;99888.22;;;10.41;100.00
41515;BME280;27247;48.020;16.720;2023-05-12T06:46:09;99878.50;;;10.40;100.00
41515;BME280;27247;48.020;16.720;2023-05-12T06:50:19;99874.19;;;10.39;100.00
41515;BME280;27247;48.020;16.720;2023-05-12T06:54:30;99872.03;;;10.34;100.00
41515;BME280;27247;48.020;16.720;2023-05-12T06:58:40;99889.53;;;10.37;100.00
41515;BME280;27247;48.020;16.720;2023-05-12T07:02:51;99892.88;;;10.39;100.00
41515;BME280;27247;48.020;16.720;2023-05-12T07:07:01;99898.22;;;10.39;100.00
41515;BME280;27247;48.020;16.720;2023-05-12T07:11:11;99895.22;;;10.34;100.00
41515;BME280;27247;48.020;16.720;2023-05-12T07:15:22;99899.75;;;10.33;100.00
41515;BME280;27247;48.020;16.720;2023-05-12T07:19:32;99896.06;;;10.34;100.00
41515;BME280;27247;48.020;16.720;2023-05-12T07:23:44;99893.72;;;10.39;100.00
41515;BME280;27247;48.020;16.720;2023-05-12T07:27:54;99905.22;;;10.40;100.00
41515;BME280;27247;48.020;16.720;2023-05-12T07:32:05;99899.41;;;10.36;100.00
41515;BME280;27247;48.020;16.720;2023-05-12T07:36:15;99898.91;;;10.33;100.00
41515;BME280;27247;48.020;16.720;2023-05-12T07:40:25;99894.75;;;10.30;100.00
41515;BME280;27247;48.020;16.720;2023-05-12T07:44:36;99903.41;;;10.40;100.00
41515;BME280;27247;48.020;16.720;2023-05-12T07:48:46;99902.91;;;10.45;100.00
41515;BME280;27247;48.020;16.720;2023-05-12T07:52:56;99909.56;;;10.49;100.00
41515;BME280;27247;48.020;16.720;2023-05-12T07:57:07;99914.03;;;10.57;100.00
41515;BME280;27247;48.020;16.720;2023-05-12T08:01:17;99915.41;;;10.52;100.00
41515;BME280;27247;48.020;16.720;2023-05-12T08:05:27;99916.88;;;10.55;100.00
41515;BME280;27247;48.020;16.720;2023-05-12T08:09:38;99910.00;;;10.61;100.00
41515;BME280;27247;48.020;16.720;2023-05-12T08:13:48;99916.03;;;10.63;100.00
41515;BME280;27247;48.020;16.720;2023-05-12T08:17:58;99927.50;;;10.71;100.00
41515;BME280;27247;48.020;16.720;2023-05-12T08:22:09;99935.84;;;10.76;100.00
41515;BME280;27247;48.020;16.720;2023-05-12T08:26:19;99932.81;;;10.79;100.00
41515;BME280;27247;48.020;16.720;2023-05-12T08:30:30;99940.44;;;10.91;100.00
41515;BME280;27247;48.020;16.720;2023-05-12T08:34:40;99928.56;;;10.93;100.00
41515;BME280;27247;48.020;16.720;2023-05-12T08:38:51;99936.53;;;11.01;100.00
41515;BME280;27247;48.020;16.720;2023-05-12T08:43:07;99934.56;;;10.95;100.00
41515;BME280;27247;48.020;16.720;2023-05-12T08:47:19;99936.00;;;11.06;100.00
41515;BME280;27247;48.020;16.720;2023-05-12T08:51:35;99948.63;;;11.20;100.00
41515;BME280;27247;48.020;16.720;2023-05-12T08:55:47;99941.84;;;11.32;100.00
41515;BME280;27247;48.020;16.720;2023-05-12T09:00:01;99946.19;;;11.33;100.00
41515;BME280;27247;48.020;16.720;2023-05-12T09:04:12;99941.78;;;11.48;100.00
41515;BME280;27247;48.020;16.720;2023-05-12T09:08:24;99957.41;;;11.60;100.00
41515;BME280;27247;48.020;16.720;2023-05-12T09:12:36;99959.34;;;11.43;100.00
41515;BME280;27247;48.020;16.720;2023-05-12T09:16:49;99956.47;;;11.52;100.00
41515;BME280;27247;48.020;16.720;2023-05-12T09:21:00;99952.13;;;11.51;100.00
41515;BME280;27247;48.020;16.720;2023-05-12T09:25:18;99966.69;;;11.49;100.00
41515;BME280;27247;48.020;16.720;2023-05-12T09:29:30;99974.53;;;11.19;100.00
41515;BME280;27247;48.020;16.720;2023-05-12T09:33:42;99967.69;;;10.86;100.00
41515;BME280;27247;48.020;16.720;2023-05-12T09:37:52;99976.31;;;10.65;100.00
41515;BME280;27247;48.020;16.720;2023-05-12T09:42:03;99979.00;;;10.57;100.00
41515;BME280;27247;48.020;16.720;2023-05-12T09:46:14;99978.16;;;10.57;100.00
41515;BME280;27247;48.020;16.720;2023-05-12T09:50:25;99977.66;;;10.61;100.00
41515;BME280;27247;48.020;16.720;2023-05-12T09:54:38;99974.59;;;10.72;100.00
41515;BME280;27247;48.020;16.720;2023-05-12T09:58:49;99972.41;;;10.76;100.00
41515;BME280;27247;48.020;16.720;2023-05-12T10:02:59;99973.56;;;10.81;100.00
41515;BME280;27247;48.020;16.720;2023-05-12T10:07:11;99971.44;;;10.69;100.00
41515;BME280;27247;48.020;16.720;2023-05-12T10:11:22;99970.44;;;10.70;100.00
41515;BME280;27247;48.020;16.720;2023-05-12T10:15:33;99970.78;;;10.67;100.00
41515;BME280;27247;48.020;16.720;2023-05-12T10:19:45;99982.97;;;10.69;100.00
41515;BME280;27247;48.020;16.720;2023-05-12T10:23:56;99988.50;;;10.68;100.00
41515;BME280;27247;48.020;16.720;2023-05-12T10:28:07;99962.63;;;10.60;100.00
41515;BME280;27247;48.020;16.720;2023-05-12T10:32:18;99984.50;;;10.64;100.00
41515;BME280;27247;48.020;16.720;2023-05-12T10:36:28;99984.66;;;10.62;100.00
41515;BME280;27247;48.020;16.720;2023-05-12T10:40:59;99976.69;;;10.54;100.00
41515;BME280;27247;48.020;16.720;2023-05-12T10:45:19;99966.19;;;10.44;100.00
41515;BME280;27247;48.020;16.720;2023-05-12T10:49:34;99977.53;;;10.46;100.00
41515;BME280;27247;48.020;16.720;2023-05-12T10:53:56;99986.56;;;10.45;100.00
41515;BME280;27247;48.020;16.720;2023-05-12T10:58:10;99985.34;;;10.56;100.00
41515;BME280;27247;48.020;16.720;2023-05-12T11:02:28;99994.69;;;10.60;100.00
41515;BME280;27247;48.020;16.720;2023-05-12T11:06:40;99997.50;;;10.67;100.00
41515;BME280;27247;48.020;16.720;2023-05-12T11:10:52;99996.34;;;10.69;100.00
41515;BME280;27247;48.020;16.720;2023-05-12T11:15:03;100000.84;;;10.69;100.00
41515;BME280;27247;48.020;16.720;2023-05-12T11:19:17;99981.16;;;10.62;100.00
41515;BME280;27247;48.020;16.720;2023-05-12T11:23:28;99999.22;;;10.60;100.00
41515;BME280;27247;48.020;16.720;2023-05-12T11:27:45;100004.56;;;10.51;100.00
41515;BME280;27247;48.020;16.720;2023-05-12T11:31:56;100004.75;;;10.50;100.00
41515;BME280;27247;48.020;16.720;2023-05-12T11:36:06;100004.75;;;10.50;100.00
41515;BME280;27247;48.020;16.720;2023-05-12T11:40:19;100017.28;;;10.49;100.00
41515;BME280;27247;48.020;16.720;2023-05-12T11:44:30;100013.63;;;10.42;100.00
41515;BME280;27247;48.020;16.720;2023-05-12T11:48:40;100010.78;;;10.44;100.00
41515;BME280;27247;48.020;16.720;2023-05-12T11:52:51;100017.44;;;10.40;100.00
41515;BME280;27247;48.020;16.720;2023-05-12T11:57:02;100017.94;;;10.43;100.00
41515;BME280;27247;48.020;16.720;2023-05-12T12:01:13;100018.09;;;10.34;100.00
41515;BME280;27247;48.020;16.720;2023-05-12T12:05:23;100019.44;;;10.38;100.00
41515;BME280;27247;48.020;16.720;2023-05-12T12:09:37;100019.78;;;10.35;100.00
41515;BME280;27247;48.020;16.720;2023-05-12T12:13:53;100027.97;;;10.33;100.00
41515;BME280;27247;48.020;16.720;2023-05-12T12:18:06;100007.25;;;10.27;100.00
41515;BME280;27247;48.020;16.720;2023-05-12T12:22:17;100027.63;;;10.28;100.00
41515;BME280;27247;48.020;16.720;2023-05-12T12:26:27;100033.13;;;10.27;100.00
41515;BME280;27247;48.020;16.720;2023-05-12T12:30:41;100035.16;;;10.24;100.00
41515;BME280;27247;48.020;16.720;2023-05-12T12:34:51;100032.28;;;10.18;100.00
41515;BME280;27247;48.020;16.720;2023-05-12T12:39:02;100042.47;;;10.14;100.00
41515;BME280;27247;48.020;16.720;2023-05-12T12:43:13;100027.63;;;10.20;100.00
41515;BME280;27247;48.020;16.720;2023-05-12T12:47:23;100049.66;;;10.14;100.00
41515;BME280;27247;48.020;16.720;2023-05-12T12:51:34;100033.28;;;10.09;100.00
41515;BME280;27247;48.020;16.720;2023-05-12T12:55:45;100035.28;;;10.15;100.00
41515;BME280;27247;48.020;16.720;2023-05-12T12:59:55;100036.47;;;10.20;100.00
41515;BME280;27247;48.020;16.720;2023-05-12T13:04:06;100037.47;;;10.28;100.00
41515;BME280;27247;48.020;16.720;2023-05-12T13:08:16;100034.97;;;10.34;100.00
41515;BME280;27247;48.020;16.720;2023-05-12T13:12:26;100029.94;;;10.39;100.00
41515;BME280;27247;48.020;16.720;2023-05-12T13:16:39;100025.31;;;10.41;100.00
41515;BME280;27247;48.020;16.720;2023-05-12T13:20:49;100028.97;;;10.48;100.00
41515;BME280;27247;48.020;16.720;2023-05-12T13:25:00;100035.13;;;10.49;100.00
41515;BME280;27247;48.020;16.720;2023-05-12T13:29:11;100033.47;;;10.48;100.00
41515;BME280;27247;48.020;16.720;2023-05-12T13:33:21;100030.66;;;10.41;100.00
41515;BME280;27247;48.020;16.720;2023-05-12T13:37:32;100029.81;;;10.41;100.00
41515;BME280;27247;48.020;16.720;2023-05-12T13:41:42;100032.47;;;10.41;100.00
41515;BME280;27247;48.020;16.720;2023-05-12T13:45:53;100031.97;;;10.37;100.00
41515;BME280;27247;48.020;16.720;2023-05-12T13:50:04;100026.63;;;10.29;100.00
41515;BME280;27247;48.020;16.720;2023-05-12T13:54:15;100035.47;;;10.30;100.00
41515;BME280;27247;48.020;16.720;2023-05-12T13:58:25;100030.31;;;10.20;100.00
41515;BME280;27247;48.020;16.720;2023-05-12T14:02:36;100035.47;;;10.21;100.00
41515;BME280;27247;48.020;16.720;2023-05-12T14:06:46;100041.31;;;10.33;100.00
41515;BME280;27247;48.020;16.720;2023-05-12T14:10:56;100039.31;;;10.43;100.00
41515;BME280;27247;48.020;16.720;2023-05-12T14:15:07;100034.81;;;10.44;100.00
41515;BME280;27247;48.020;16.720;2023-05-12T14:19:18;100042.81;;;10.52;100.00
41515;BME280;27247;48.020;16.720;2023-05-12T14:23:28;100036.13;;;10.56;100.00
41515;BME280;27247;48.020;16.720;2023-05-12T14:27:39;100040.63;;;10.55;100.00
41515;BME280;27247;48.020;16.720;2023-05-12T14:31:49;100048.31;;;10.59;100.00
41515;BME280;27247;48.020;16.720;2023-05-12T14:36:00;100049.50;;;10.56;100.00
41515;BME280;27247;48.020;16.720;2023-05-12T14:40:10;100067.69;;;10.52;100.00
41515;BME280;27247;48.020;16.720;2023-05-12T14:44:21;100058.19;;;10.42;100.00
41515;BME280;27247;48.020;16.720;2023-05-12T14:48:31;100062.19;;;10.38;100.00
41515;BME280;27247;48.020;16.720;2023-05-12T14:52:42;100061.69;;;10.34;100.00
41515;BME280;27247;48.020;16.720;2023-05-12T14:56:52;100057.69;;;10.22;100.00
41515;BME280;27247;48.020;16.720;2023-05-12T15:01:03;100061.66;;;10.18;100.00
41515;BME280;27247;48.020;16.720;2023-05-12T15:05:14;100061.19;;;10.22;100.00
41515;BME280;27247;48.020;16.720;2023-05-12T15:09:24;100054.00;;;10.23;100.00
41515;BME280;27247;48.020;16.720;2023-05-12T15:13:35;100058.69;;;10.29;100.00
41515;BME280;27247;48.020;16.720;2023-05-12T15:17:45;100049.00;;;10.36;100.00
41515;BME280;27247;48.020;16.720;2023-05-12T15:21:55;100061.19;;;10.39;100.00
41515;BME280;27247;48.020;16.720;2023-05-12T15:26:06;100063.19;;;10.45;100.00
41515;BME280;27247;48.020;16.720;2023-05-12T15:30:16;100059.50;;;10.38;100.00
41515;BME280;27247;48.020;16.720;2023-05-12T15:34:27;100055.84;;;10.31;100.00
41515;BME280;27247;48.020;16.720;2023-05-12T15:38:37;100079.88;;;10.22;100.00
41515;BME280;27247;48.020;16.720;2023-05-12T15:42:47;100077.34;;;10.05;100.00
41515;BME280;27247;48.020;16.720;2023-05-12T15:46:58;100082.34;;;10.00;100.00
41515;BME280;27247;48.020;16.720;2023-05-12T15:51:09;100072.66;;;9.90;100.00
41515;BME280;27247;48.020;16.720;2023-05-12T15:55:19;100087.34;;;9.78;100.00
41515;BME280;27247;48.020;16.720;2023-05-12T15:59:30;100067.97;;;9.68;100.00
41515;BME280;27247;48.020;16.720;2023-05-12T16:03:40;100080.97;;;9.63;100.00
41515;BME280;27247;48.020;16.720;2023-05-12T16:07:51;100070.44;;;9.62;100.00
41515;BME280;27247;48.020;16.720;2023-05-12T16:12:07;100077.13;;;9.66;100.00
41515;BME280;27247;48.020;16.720;2023-05-12T16:16:26;100070.78;;;9.58;100.00
41515;BME280;27247;48.020;16.720;2023-05-12T16:20:37;100067.13;;;9.59;100.00
41515;BME280;27247;48.020;16.720;2023-05-12T16:24:47;100067.13;;;9.59;100.00
41515;BME280;27247;48.020;16.720;2023-05-12T16:28:58;100083.28;;;9.58;100.00
41515;BME280;27247;48.020;16.720;2023-05-12T16:33:08;100079.63;;;9.59;100.00
41515;BME280;27247;48.020;16.720;2023-05-12T16:37:19;100084.63;;;9.62;100.00
41515;BME280;27247;48.020;16.720;2023-05-12T16:41:29;100085.13;;;9.66;100.00
41515;BME280;27247;48.020;16.720;2023-05-12T16:45:39;100089.47;;;9.67;100.00
41515;BME280;27247;48.020;16.720;2023-05-12T16:49:53;100081.63;;;9.65;100.00
41515;BME280;27247;48.020;16.720;2023-05-12T16:54:03;100078.13;;;9.65;100.00
41515;BME280;27247;48.020;16.720;2023-05-12T16:58:13;100078.31;;;9.71;100.00
41515;BME280;27247;48.020;16.720;2023-05-12T17:02:24;100076.66;;;9.70;100.00
41515;BME280;27247;48.020;16.720;2023-05-12T17:06:34;100072.31;;;9.69;100.00
41515;BME280;27247;48.020;16.720;2023-05-12T17:10:45;100083.81;;;9.70;100.00
41515;BME280;27247;48.020;16.720;2023-05-12T17:14:55;100084.81;;;9.77;100.00
41515;BME280;27247;48.020;16.720;2023-05-12T17:19:06;100080.81;;;9.73;100.00
41515;BME280;27247;48.020;16.720;2023-05-12T17:23:16;100090.84;;;9.79;100.00
41515;BME280;27247;48.020;16.720;2023-05-12T17:27:27;100097.84;;;9.80;100.00
41515;BME280;27247;48.020;16.720;2023-05-12T17:31:37;100097.34;;;9.76;100.00
41515;BME280;27247;48.020;16.720;2023-05-12T17:35:47;100092.50;;;9.72;100.00
41515;BME280;27247;48.020;16.720;2023-05-12T17:39:58;100102.50;;;9.70;100.00
41515;BME280;27247;48.020;16.720;2023-05-12T17:44:10;100104.31;;;9.69;100.00
41515;BME280;27247;48.020;16.720;2023-05-12T17:48:20;100110.00;;;9.66;100.00
41515;BME280;27247;48.020;16.720;2023-05-12T17:52:30;100109.47;;;9.63;100.00
41515;BME280;27247;48.020;16.720;2023-05-12T17:56:41;100120.81;;;9.65;100.00
41515;BME280;27247;48.020;16.720;2023-05-12T18:00:53;100115.66;;;9.63;100.00
41515;BME280;27247;48.020;16.720;2023-05-12T18:05:04;100118.50;;;9.70;100.00
41515;BME280;27247;48.020;16.720;2023-05-12T18:09:18;100119.50;;;9.69;100.00
41515;BME280;27247;48.020;16.720;2023-05-12T18:13:29;100122.50;;;9.74;100.00
41515;BME280;27247;48.020;16.720;2023-05-12T18:17:40;100124.69;;;9.70;100.00
41515;BME280;27247;48.020;16.720;2023-05-12T18:21:50;100121.34;;;9.76;100.00
41515;BME280;27247;48.020;16.720;2023-05-12T18:26:04;100125.84;;;9.76;100.00
41515;BME280;27247;48.020;16.720;2023-05-12T18:30:14;100124.19;;;9.75;100.00
41515;BME280;27247;48.020;16.720;2023-05-12T18:34:25;100127.69;;;9.75;100.00
41515;BME280;27247;48.020;16.720;2023-05-12T18:38:35;100125.19;;;9.74;100.00
41515;BME280;27247;48.020;16.720;2023-05-12T18:42:49;100118.34;;;9.71;100.00
41515;BME280;27247;48.020;16.720;2023-05-12T18:47:00;100120.53;;;9.76;100.00
41515;BME280;27247;48.020;16.720;2023-05-12T18:51:10;100131.03;;;9.77;100.00
41515;BME280;27247;48.020;16.720;2023-05-12T18:55:21;100140.88;;;9.77;100.00
41515;BME280;27247;48.020;16.720;2023-05-12T18:59:31;100141.03;;;9.75;100.00
41515;BME280;27247;48.020;16.720;2023-05-12T19:03:44;100149.38;;;9.72;100.00
41515;BME280;27247;48.020;16.720;2023-05-12T19:07:57;100146.03;;;9.78;100.00
41515;BME280;27247;48.020;16.720;2023-05-12T19:12:08;100140.34;;;9.73;100.00
41515;BME280;27247;48.020;16.720;2023-05-12T19:16:22;100149.38;;;9.80;100.00
41515;BME280;27247;48.020;16.720;2023-05-12T19:20:32;100151.72;;;9.75;100.00
41515;BME280;27247;48.020;16.720;2023-05-12T19:24:43;100158.53;;;9.70;100.00
41515;BME280;27247;48.020;16.720;2023-05-12T19:28:53;100155.38;;;9.74;100.00
41515;BME280;27247;48.020;16.720;2023-05-12T19:33:04;100158.38;;;9.71;100.00
41515;BME280;27247;48.020;16.720;2023-05-12T19:37:16;100165.38;;;9.72;100.00
41515;BME280;27247;48.020;16.720;2023-05-12T19:41:27;100170.22;;;9.77;100.00
41515;BME280;27247;48.020;16.720;2023-05-12T19:45:38;100176.06;;;9.72;100.00
41515;BME280;27247;48.020;16.720;2023-05-12T19:49:48;100170.88;;;9.71;100.00
41515;BME280;27247;48.020;16.720;2023-05-12T19:53:59;100180.88;;;9.69;100.00
41515;BME280;27247;48.020;16.720;2023-05-12T19:58:11;100175.22;;;9.72;100.00
41515;BME280;27247;48.020;16.720;2023-05-12T20:02:21;100168.03;;;9.72;100.00
41515;BME280;27247;48.020;16.720;2023-05-12T20:06:37;100172.88;;;9.69;100.00
41515;BME280;27247;48.020;16.720;2023-05-12T20:10:47;100171.19;;;9.68;100.00
41515;BME280;27247;48.020;16.720;2023-05-12T20:14:58;100173.34;;;9.64;100.00
41515;BME280;27247;48.020;16.720;2023-05-12T20:19:08;100168.84;;;9.65;100.00
41515;BME280;27247;48.020;16.720;2023-05-12T20:23:18;100168.84;;;9.65;100.00
41515;BME280;27247;48.020;16.720;2023-05-12T20:27:30;100167.69;;;9.67;100.00
41515;BME280;27247;48.020;16.720;2023-05-12T20:31:41;100170.88;;;9.71;100.00
41515;BME280;27247;48.020;16.720;2023-05-12T20:35:51;100166.84;;;9.67;100.00
41515;BME280;27247;48.020;16.720;2023-05-12T20:40:01;100166.69;;;9.68;100.00
41515;BME280;27247;48.020;16.720;2023-05-12T20:44:14;100164.69;;;9.70;100.00
41515;BME280;27247;48.020;16.720;2023-05-12T20:48:24;100164.53;;;9.72;100.00
41515;BME280;27247;48.020;16.720;2023-05-12T20:52:35;100169.19;;;9.70;100.00
41515;BME280;27247;48.020;16.720;2023-05-12T20:56:46;100163.53;;;9.73;100.00
41515;BME280;27247;48.020;16.720;2023-05-12T21:00:56;100168.19;;;9.71;100.00
41515;BME280;27247;48.020;16.720;2023-05-12T21:05:08;100167.88;;;9.74;100.00
41515;BME280;27247;48.020;16.720;2023-05-12T21:09:19;100165.06;;;9.75;100.00
41515;BME280;27247;48.020;16.720;2023-05-12T21:13:29;100176.56;;;9.76;100.00
41515;BME280;27247;48.020;16.720;2023-05-12T21:17:40;100168.88;;;9.73;100.00
41515;BME280;27247;48.020;16.720;2023-05-12T21:21:50;100170.56;;;9.74;100.00
41515;BME280;27247;48.020;16.720;2023-05-12T21:26:01;100170.72;;;9.72;100.00
41515;BME280;27247;48.020;16.720;2023-05-12T21:30:11;100171.19;;;9.68;100.00